sensor_id;sensor_type;location;lat;lon;timestamp;pressure;altitude;pressure_sealevel;temperature;humidity
51926;BME280;37952;51.938;15.480;2023-08-21T00:00:03;100404.02;;;26.50;56.00
51926;BME280;37952;51.938;15.480;2023-08-21T00:03:06;100405.60;;;26.46;55.91
51926;BME280;37952;51.938;15.480;2023-08-21T00:06:10;100405.39;;;26.43;55.91
51926;BME280;37952;51.938;15.480;2023-08-21T00:09:16;100401.22;;;26.41;55.86
51926;BME280;37952;51.938;15.480;2023-08-21T00:12:19;100399.80;;;26.37;55.87
51926;BME280;37952;51.938;15.480;2023-08-21T00:15:22;100393.44;;;26.34;55.76
51926;BME280;37952;51.938;15.480;2023-08-21T00:18:24;100393.84;;;26.29;55.84
51926;BME280;37952;51.938;15.480;2023-08-21T00:21:27;100396.14;;;26.25;55.92
51926;BME280;37952;51.938;15.480;2023-08-21T00:24:30;100387.90;;;26.21;56.01
51926;BME280;37952;51.938;15.480;2023-08-21T00:27:33;100385.11;;;26.14;56.12
51926;BME280;37952;51.938;15.480;2023-08-21T00:30:36;100387.14;;;26.09;56.26
51926;BME280;37952;51.938;15.480;2023-08-21T00:33:38;100386.55;;;26.06;56.30
51926;BME280;37952;51.938;15.480;2023-08-21T00:36:41;100392.25;;;26.06;56.23
51926;BME280;37952;51.938;15.480;2023-08-21T00:39:44;100399.14;;;26.03;56.17
51926;BME280;37952;51.938;15.480;2023-08-21T00:42:47;100408.39;;;26.02;56.19
51926;BME280;37952;51.938;15.480;2023-08-21T00:45:50;100425.55;;;26.00;56.08
51926;BME280;37952;51.938;15.480;2023-08-21T00:48:53;100432.50;;;25.98;55.50
51926;BME280;37952;51.938;15.480;2023-08-21T00:51:56;100424.09;;;25.89;55.45
51926;BME280;37952;51.938;15.480;2023-08-21T00:54:59;100423.61;;;25.85;55.48
51926;BME280;37952;51.938;15.480;2023-08-21T00:58:02;100417.65;;;25.84;55.34
51926;BME280;37952;51.938;15.480;2023-08-21T01:01:06;100409.55;;;25.79;55.22
51926;BME280;37952;51.938;15.480;2023-08-21T01:04:09;100412.73;;;25.73;55.38
51926;BME280;37952;51.938;15.480;2023-08-21T01:07:13;100420.50;;;25.70;55.19
51926;BME280;37952;51.938;15.480;2023-08-21T01:10:30;100423.55;;;25.65;55.40
51926;BME280;37952;51.938;15.480;2023-08-21T01:17:07;100422.46;;;25.60;55.29
51926;BME280;37952;51.938;15.480;2023-08-21T01:20:16;100423.17;;;25.60;54.99
51926;BME280;37952;51.938;15.480;2023-08-21T01:23:49;100422.20;;;25.56;54.57
51926;BME280;37952;51.938;15.480;2023-08-21T01:26:51;100421.77;;;25.47;54.12
51926;BME280;37952;51.938;15.480;2023-08-21T01:29:54;100420.25;;;25.40;53.39
51926;BME280;37952;51.938;15.480;2023-08-21T01:33:10;100415.89;;;25.29;53.14
51926;BME280;37952;51.938;15.480;2023-08-21T01:36:16;100405.23;;;25.19;52.72
51926;BME280;37952;51.938;15.480;2023-08-21T01:39:20;100398.09;;;25.11;52.48
51926;BME280;37952;51.938;15.480;2023-08-21T01:42:22;100397.20;;;25.01;52.23
51926;BME280;37952;51.938;15.480;2023-08-21T01:45:25;100396.88;;;24.92;52.61
51926;BME280;37952;51.938;15.480;2023-08-21T01:48:29;100401.84;;;24.88;52.78
51926;BME280;37952;51.938;15.480;2023-08-21T01:51:32;100406.64;;;24.85;52.67
51926;BME280;37952;51.938;15.480;2023-08-21T01:54:35;100403.67;;;24.81;52.74
51926;BME280;37952;51.938;15.480;2023-08-21T01:57:38;100395.67;;;24.78;52.80
51926;BME280;37952;51.938;15.480;2023-08-21T02:00:41;100395.04;;;24.76;52.74
51926;BME280;37952;51.938;15.480;2023-08-21T02:03:45;100398.08;;;24.73;52.48
51926;BME280;37952;51.938;15.480;2023-08-21T02:06:48;100393.70;;;24.67;52.42
51926;BME280;37952;51.938;15.480;2023-08-21T02:09:50;100392.75;;;24.57;52.42
51926;BME280;37952;51.938;15.480;2023-08-21T02:12:53;100395.77;;;24.53;52.88
51926;BME280;37952;51.938;15.480;2023-08-21T02:15:56;100395.60;;;24.53;53.04
51926;BME280;37952;51.938;15.480;2023-08-21T02:19:00;100396.41;;;24.53;53.22
51926;BME280;37952;51.938;15.480;2023-08-21T02:22:02;100397.65;;;24.55;52.90
51926;BME280;37952;51.938;15.480;2023-08-21T02:25:05;100395.86;;;24.55;52.93
51926;BME280;37952;51.938;15.480;2023-08-21T02:28:08;100398.13;;;24.52;52.93
51926;BME280;37952;51.938;15.480;2023-08-21T02:31:12;100401.02;;;24.46;52.87
51926;BME280;37952;51.938;15.480;2023-08-21T02:34:15;100401.89;;;24.38;53.02
51926;BME280;37952;51.938;15.480;2023-08-21T02:37:17;100396.65;;;24.33;53.20
51926;BME280;37952;51.938;15.480;2023-08-21T02:40:20;100397.67;;;24.30;53.28
51926;BME280;37952;51.938;15.480;2023-08-21T02:43:23;100399.19;;;24.29;53.37
51926;BME280;37952;51.938;15.480;2023-08-21T02:46:25;100401.77;;;24.31;53.60
51926;BME280;37952;51.938;15.480;2023-08-21T02:49:28;100399.36;;;24.26;53.69
51926;BME280;37952;51.938;15.480;2023-08-21T02:52:32;100397.33;;;24.27;53.92
51926;BME280;37952;51.938;15.480;2023-08-21T02:55:35;100398.89;;;24.27;53.86
51926;BME280;37952;51.938;15.480;2023-08-21T02:58:38;100395.02;;;24.21;53.97
51926;BME280;37952;51.938;15.480;2023-08-21T03:01:41;100399.66;;;24.11;54.01
51926;BME280;37952;51.938;15.480;2023-08-21T03:04:44;100398.38;;;24.07;54.48
51926;BME280;37952;51.938;15.480;2023-08-21T03:07:47;100401.90;;;24.02;54.55
51926;BME280;37952;51.938;15.480;2023-08-21T03:10:50;100401.16;;;24.04;54.45
51926;BME280;37952;51.938;15.480;2023-08-21T03:13:53;100402.72;;;24.06;54.45
51926;BME280;37952;51.938;15.480;2023-08-21T03:16:56;100408.38;;;24.07;54.42
51926;BME280;37952;51.938;15.480;2023-08-21T03:20:04;100410.10;;;24.01;54.13
51926;BME280;37952;51.938;15.480;2023-08-21T03:23:08;100408.78;;;24.00;54.35
51926;BME280;37952;51.938;15.480;2023-08-21T03:26:10;100409.80;;;24.01;54.09
51926;BME280;37952;51.938;15.480;2023-08-21T03:29:13;100405.11;;;24.01;54.01
51926;BME280;37952;51.938;15.480;2023-08-21T03:32:16;100405.32;;;24.01;53.96
51926;BME280;37952;51.938;15.480;2023-08-21T03:35:20;100404.77;;;24.02;53.77
51926;BME280;37952;51.938;15.480;2023-08-21T03:38:22;100406.96;;;24.05;53.67
51926;BME280;37952;51.938;15.480;2023-08-21T03:41:25;100405.92;;;24.07;53.68
51926;BME280;37952;51.938;15.480;2023-08-21T03:44:28;100403.27;;;24.06;53.43
51926;BME280;37952;51.938;15.480;2023-08-21T03:47:31;100398.66;;;23.99;53.67
51926;BME280;37952;51.938;15.480;2023-08-21T03:50:34;100398.35;;;23.93;53.60
51926;BME280;37952;51.938;15.480;2023-08-21T03:53:37;100404.63;;;23.94;53.58
51926;BME280;37952;51.938;15.480;2023-08-21T03:56:40;100403.91;;;23.95;53.75
51926;BME280;37952;51.938;15.480;2023-08-21T03:59:43;100409.56;;;23.96;53.72
51926;BME280;37952;51.938;15.480;2023-08-21T04:02:46;100415.23;;;23.95;53.62
51926;BME280;37952;51.938;15.480;2023-08-21T04:05:49;100415.32;;;23.91;53.72
51926;BME280;37952;51.938;15.480;2023-08-21T04:08:52;100408.44;;;23.90;53.68
51926;BME280;37952;51.938;15.480;2023-08-21T04:11:54;100412.61;;;23.86;53.84
51926;BME280;37952;51.938;15.480;2023-08-21T04:14:57;100409.23;;;23.86;53.86
51926;BME280;37952;51.938;15.480;2023-08-21T04:18:00;100409.00;;;23.84;53.84
51926;BME280;37952;51.938;15.480;2023-08-21T04:21:03;100405.68;;;23.82;54.01
51926;BME280;37952;51.938;15.480;2023-08-21T04:24:07;100402.58;;;23.84;53.96
51926;BME280;37952;51.938;15.480;2023-08-21T04:27:09;100401.23;;;23.86;53.97
51926;BME280;37952;51.938;15.480;2023-08-21T04:30:12;100398.33;;;23.88;54.03
51926;BME280;37952;51.938;15.480;2023-08-21T04:33:15;100395.50;;;23.88;54.02
51926;BME280;37952;51.938;15.480;2023-08-21T04:36:18;100388.66;;;23.79;54.02
51926;BME280;37952;51.938;15.480;2023-08-21T04:39:21;100388.11;;;23.74;54.09
51926;BME280;37952;51.938;15.480;2023-08-21T04:42:24;100389.79;;;23.70;54.28
51926;BME280;37952;51.938;15.480;2023-08-21T04:45:26;100384.92;;;23.69;54.21
51926;BME280;37952;51.938;15.480;2023-08-21T04:48:29;100386.48;;;23.62;54.17
51926;BME280;37952;51.938;15.480;2023-08-21T04:51:32;100392.17;;;23.63;54.11
51926;BME280;37952;51.938;15.480;2023-08-21T04:54:35;100394.51;;;23.66;54.10
51926;BME280;37952;51.938;15.480;2023-08-21T04:57:38;100399.69;;;23.67;54.10
51926;BME280;37952;51.938;15.480;2023-08-21T05:00:40;100409.09;;;23.70;53.92
51926;BME280;37952;51.938;15.480;2023-08-21T05:03:43;100408.23;;;23.73;53.84
51926;BME280;37952;51.938;15.480;2023-08-21T05:06:46;100407.11;;;23.77;53.78
51926;BME280;37952;51.938;15.480;2023-08-21T05:09:49;100405.90;;;23.79;53.88
51926;BME280;37952;51.938;15.480;2023-08-21T05:12:52;100405.84;;;23.80;53.81
51926;BME280;37952;51.938;15.480;2023-08-21T05:15:56;100404.89;;;23.79;53.81
51926;BME280;37952;51.938;15.480;2023-08-21T05:18:59;100405.08;;;23.81;53.86
51926;BME280;37952;51.938;15.480;2023-08-21T05:22:02;100402.37;;;23.83;53.71
51926;BME280;37952;51.938;15.480;2023-08-21T05:25:06;100400.94;;;23.77;53.73
51926;BME280;37952;51.938;15.480;2023-08-21T05:28:09;100402.45;;;23.70;53.60
51926;BME280;37952;51.938;15.480;2023-08-21T05:31:12;100395.98;;;23.57;53.79
51926;BME280;37952;51.938;15.480;2023-08-21T05:34:15;100400.98;;;23.46;54.00
51926;BME280;37952;51.938;15.480;2023-08-21T05:37:17;100403.06;;;23.40;54.20
51926;BME280;37952;51.938;15.480;2023-08-21T05:40:20;100405.40;;;23.36;54.34
51926;BME280;37952;51.938;15.480;2023-08-21T05:43:23;100413.70;;;23.36;54.46
51926;BME280;37952;51.938;15.480;2023-08-21T05:46:26;100416.63;;;23.35;54.51
51926;BME280;37952;51.938;15.480;2023-08-21T05:49:29;100421.91;;;23.38;54.37
51926;BME280;37952;51.938;15.480;2023-08-21T05:52:32;100421.70;;;23.40;54.44
51926;BME280;37952;51.938;15.480;2023-08-21T05:55:38;100426.38;;;23.42;54.35
51926;BME280;37952;51.938;15.480;2023-08-21T05:58:41;100427.46;;;23.47;54.37
51926;BME280;37952;51.938;15.480;2023-08-21T06:01:44;100428.54;;;23.53;54.23
51926;BME280;37952;51.938;15.480;2023-08-21T06:04:47;100433.45;;;23.50;54.26
51926;BME280;37952;51.938;15.480;2023-08-21T06:07:49;100428.52;;;23.56;54.33
51926;BME280;37952;51.938;15.480;2023-08-21T06:10:52;100428.85;;;23.67;54.24
51926;BME280;37952;51.938;15.480;2023-08-21T06:13:55;100429.42;;;23.75;54.14
51926;BME280;37952;51.938;15.480;2023-08-21T06:17:04;100433.98;;;23.85;54.25
51926;BME280;37952;51.938;15.480;2023-08-21T06:20:08;100432.30;;;23.94;54.15
51926;BME280;37952;51.938;15.480;2023-08-21T06:23:12;100431.35;;;24.03;54.04
51926;BME280;37952;51.938;15.480;2023-08-21T06:26:14;100436.59;;;24.11;53.96
51926;BME280;37952;51.938;15.480;2023-08-21T06:29:17;100438.33;;;24.19;53.72
51926;BME280;37952;51.938;15.480;2023-08-21T06:32:21;100441.85;;;24.27;53.82
51926;BME280;37952;51.938;15.480;2023-08-21T06:35:24;100445.55;;;24.34;53.80
51926;BME280;37952;51.938;15.480;2023-08-21T06:38:27;100451.61;;;24.38;53.66
51926;BME280;37952;51.938;15.480;2023-08-21T06:41:30;100448.54;;;24.41;53.70
51926;BME280;37952;51.938;15.480;2023-08-21T06:44:33;100448.21;;;24.46;53.65
51926;BME280;37952;51.938;15.480;2023-08-21T06:47:36;100451.09;;;24.53;53.69
51926;BME280;37952;51.938;15.480;2023-08-21T06:50:39;100453.58;;;24.58;53.62
51926;BME280;37952;51.938;15.480;2023-08-21T06:53:42;100448.17;;;24.63;53.63
51926;BME280;37952;51.938;15.480;2023-08-21T06:56:45;100446.73;;;24.68;53.74
51926;BME280;37952;51.938;15.480;2023-08-21T06:59:47;100445.43;;;24.72;53.70
51926;BME280;37952;51.938;15.480;2023-08-21T07:02:50;100452.03;;;24.76;53.67
51926;BME280;37952;51.938;15.480;2023-08-21T07:05:57;100451.67;;;24.79;53.65
51926;BME280;37952;51.938;15.480;2023-08-21T07:09:01;100449.54;;;24.82;53.55
51926;BME280;37952;51.938;15.480;2023-08-21T07:12:04;100447.42;;;24.85;53.53
51926;BME280;37952;51.938;15.480;2023-08-21T07:15:08;100442.71;;;24.83;53.57
51926;BME280;37952;51.938;15.480;2023-08-21T07:18:11;100448.46;;;24.82;53.50
51926;BME280;37952;51.938;15.480;2023-08-21T07:21:13;100449.92;;;24.82;53.53
51926;BME280;37952;51.938;15.480;2023-08-21T07:24:34;100452.59;;;24.84;53.55
51926;BME280;37952;51.938;15.480;2023-08-21T07:27:36;100450.56;;;24.83;53.55
51926;BME280;37952;51.938;15.480;2023-08-21T07:30:39;100452.05;;;24.85;53.75
51926;BME280;37952;51.938;15.480;2023-08-21T07:33:42;100453.29;;;24.91;53.75
51926;BME280;37952;51.938;15.480;2023-08-21T07:36:45;100453.69;;;24.97;53.70
51926;BME280;37952;51.938;15.480;2023-08-21T07:39:48;100452.70;;;25.00;53.49
51926;BME280;37952;51.938;15.480;2023-08-21T07:42:51;100455.05;;;25.01;53.59
51926;BME280;37952;51.938;15.480;2023-08-21T07:45:54;100456.30;;;25.04;53.55
51926;BME280;37952;51.938;15.480;2023-08-21T07:48:57;100459.38;;;25.09;53.47
51926;BME280;37952;51.938;15.480;2023-08-21T07:52:00;100461.44;;;25.12;53.21
51926;BME280;37952;51.938;15.480;2023-08-21T07:55:03;100456.80;;;25.11;53.21
51926;BME280;37952;51.938;15.480;2023-08-21T07:58:06;100456.83;;;25.14;53.25
51926;BME280;37952;51.938;15.480;2023-08-21T08:01:09;100455.56;;;25.16;53.24
51926;BME280;37952;51.938;15.480;2023-08-21T08:04:12;100456.86;;;25.16;53.14
51926;BME280;37952;51.938;15.480;2023-08-21T08:07:15;100464.84;;;25.15;53.09
51926;BME280;37952;51.938;15.480;2023-08-21T08:10:18;100466.31;;;25.15;53.14
51926;BME280;37952;51.938;15.480;2023-08-21T08:13:20;100471.35;;;25.20;53.15
51926;BME280;37952;51.938;15.480;2023-08-21T08:16:23;100472.97;;;25.27;52.96
51926;BME280;37952;51.938;15.480;2023-08-21T08:19:27;100474.41;;;25.30;52.90
51926;BME280;37952;51.938;15.480;2023-08-21T08:22:30;100477.58;;;25.34;52.50
51926;BME280;37952;51.938;15.480;2023-08-21T08:25:33;100479.51;;;25.36;52.45
51926;BME280;37952;51.938;15.480;2023-08-21T08:28:36;100481.21;;;25.40;52.29
51926;BME280;37952;51.938;15.480;2023-08-21T08:31:39;100477.86;;;25.43;52.19
51926;BME280;37952;51.938;15.480;2023-08-21T08:34:42;100477.61;;;25.44;51.99
51926;BME280;37952;51.938;15.480;2023-08-21T08:37:44;100482.59;;;25.42;51.80
51926;BME280;37952;51.938;15.480;2023-08-21T08:40:47;100481.09;;;25.40;51.73
51926;BME280;37952;51.938;15.480;2023-08-21T08:43:54;100478.85;;;25.38;51.77
51926;BME280;37952;51.938;15.480;2023-08-21T08:46:59;100473.21;;;25.39;51.79
51926;BME280;37952;51.938;15.480;2023-08-21T08:50:04;100478.05;;;25.38;51.79
51926;BME280;37952;51.938;15.480;2023-08-21T08:53:08;100471.59;;;25.37;51.69
51926;BME280;37952;51.938;15.480;2023-08-21T08:56:19;100471.31;;;25.37;51.66
51926;BME280;37952;51.938;15.480;2023-08-21T08:59:22;100467.05;;;25.38;51.72
51926;BME280;37952;51.938;15.480;2023-08-21T09:02:25;100465.38;;;25.40;51.61
51926;BME280;37952;51.938;15.480;2023-08-21T09:05:33;100459.10;;;25.40;51.37
51926;BME280;37952;51.938;15.480;2023-08-21T09:08:36;100461.45;;;25.41;51.23
51926;BME280;37952;51.938;15.480;2023-08-21T09:11:43;100455.99;;;25.43;51.23
51926;BME280;37952;51.938;15.480;2023-08-21T09:14:47;100456.06;;;25.46;50.83
51926;BME280;37952;51.938;15.480;2023-08-21T09:17:53;100453.80;;;25.47;50.79
51926;BME280;37952;51.938;15.480;2023-08-21T09:20:57;100452.49;;;25.49;50.85
51926;BME280;37952;51.938;15.480;2023-08-21T09:24:01;100451.16;;;25.51;50.51
51926;BME280;37952;51.938;15.480;2023-08-21T09:27:15;100450.41;;;25.52;50.42
51926;BME280;37952;51.938;15.480;2023-08-21T09:30:19;100448.23;;;25.53;50.23
51926;BME280;37952;51.938;15.480;2023-08-21T09:33:23;100447.13;;;25.55;50.02
51926;BME280;37952;51.938;15.480;2023-08-21T09:36:27;100437.47;;;25.55;50.12
51926;BME280;37952;51.938;15.480;2023-08-21T09:39:35;100441.66;;;25.61;50.13
51926;BME280;37952;51.938;15.480;2023-08-21T09:42:41;100439.04;;;25.66;50.26
51926;BME280;37952;51.938;15.480;2023-08-21T09:45:48;100437.04;;;25.69;50.01
51926;BME280;37952;51.938;15.480;2023-08-21T09:48:52;100438.62;;;25.71;50.14
51926;BME280;37952;51.938;15.480;2023-08-21T09:51:57;100437.41;;;25.75;50.10
51926;BME280;37952;51.938;15.480;2023-08-21T09:55:00;100428.58;;;25.78;50.10
51926;BME280;37952;51.938;15.480;2023-08-21T09:58:06;100427.88;;;25.84;50.05
51926;BME280;37952;51.938;15.480;2023-08-21T10:01:09;100429.41;;;25.90;50.15
51926;BME280;37952;51.938;15.480;2023-08-21T10:04:17;100428.98;;;25.92;49.99
51926;BME280;37952;51.938;15.480;2023-08-21T10:07:21;100428.08;;;25.97;50.19
51926;BME280;37952;51.938;15.480;2023-08-21T10:10:29;100424.49;;;26.05;50.33
51926;BME280;37952;51.938;15.480;2023-08-21T10:13:33;100424.27;;;26.14;50.29
51926;BME280;37952;51.938;15.480;2023-08-21T10:16:37;100416.65;;;26.18;50.17
51926;BME280;37952;51.938;15.480;2023-08-21T10:19:39;100420.15;;;26.17;50.41
51926;BME280;37952;51.938;15.480;2023-08-21T10:22:44;100415.65;;;26.20;50.69
51926;BME280;37952;51.938;15.480;2023-08-21T10:25:47;100413.69;;;26.24;50.70
51926;BME280;37952;51.938;15.480;2023-08-21T10:28:55;100416.59;;;26.32;50.83
51926;BME280;37952;51.938;15.480;2023-08-21T10:32:04;100416.89;;;26.39;50.76
51926;BME280;37952;51.938;15.480;2023-08-21T10:35:14;100416.67;;;26.47;50.66
51926;BME280;37952;51.938;15.480;2023-08-21T10:38:18;100415.31;;;26.57;50.58
51926;BME280;37952;51.938;15.480;2023-08-21T10:41:26;100413.54;;;26.70;50.63
51926;BME280;37952;51.938;15.480;2023-08-21T10:47:44;100419.09;;;26.97;50.35
51926;BME280;37952;51.938;15.480;2023-08-21T10:50:50;100426.16;;;26.94;49.75
51926;BME280;37952;51.938;15.480;2023-08-21T10:53:53;100426.48;;;26.78;50.17
51926;BME280;37952;51.938;15.480;2023-08-21T10:56:56;100432.80;;;26.69;49.69
51926;BME280;37952;51.938;15.480;2023-08-21T11:00:01;100431.62;;;26.53;49.54
51926;BME280;37952;51.938;15.480;2023-08-21T11:03:06;100426.33;;;26.36;50.22
51926;BME280;37952;51.938;15.480;2023-08-21T11:06:10;100429.86;;;26.30;50.34
51926;BME280;37952;51.938;15.480;2023-08-21T11:09:13;100427.30;;;26.32;50.79
51926;BME280;37952;51.938;15.480;2023-08-21T11:12:21;100407.48;;;26.38;50.63
51926;BME280;37952;51.938;15.480;2023-08-21T11:15:25;100409.05;;;26.49;50.42
51926;BME280;37952;51.938;15.480;2023-08-21T11:18:35;100418.17;;;26.67;50.54
51926;BME280;37952;51.938;15.480;2023-08-21T11:21:38;100415.20;;;26.83;50.15
51926;BME280;37952;51.938;15.480;2023-08-21T11:24:46;100413.94;;;26.87;49.73
51926;BME280;37952;51.938;15.480;2023-08-21T11:27:49;100414.90;;;26.95;50.03
51926;BME280;37952;51.938;15.480;2023-08-21T11:30:52;100415.50;;;27.05;49.82
51926;BME280;37952;51.938;15.480;2023-08-21T11:33:55;100417.14;;;27.08;49.26
51926;BME280;37952;51.938;15.480;2023-08-21T11:36:58;100416.75;;;27.00;48.44
51926;BME280;37952;51.938;15.480;2023-08-21T11:40:07;100420.35;;;26.90;48.88
51926;BME280;37952;51.938;15.480;2023-08-21T11:43:10;100411.05;;;26.83;48.89
51926;BME280;37952;51.938;15.480;2023-08-21T11:46:13;100414.29;;;26.69;48.97
51926;BME280;37952;51.938;15.480;2023-08-21T11:49:16;100415.94;;;26.51;49.31
51926;BME280;37952;51.938;15.480;2023-08-21T11:52:22;100417.93;;;26.44;49.73
51926;BME280;37952;51.938;15.480;2023-08-21T11:55:29;100421.02;;;26.39;49.81
51926;BME280;37952;51.938;15.480;2023-08-21T11:58:32;100421.88;;;26.38;50.14
51926;BME280;37952;51.938;15.480;2023-08-21T12:01:34;100412.05;;;26.47;50.17
51926;BME280;37952;51.938;15.480;2023-08-21T12:04:37;100411.80;;;26.73;49.95
51926;BME280;37952;51.938;15.480;2023-08-21T12:07:40;100409.98;;;26.95;49.76
51926;BME280;37952;51.938;15.480;2023-08-21T12:10:43;100410.66;;;27.14;49.63
51926;BME280;37952;51.938;15.480;2023-08-21T12:13:46;100404.62;;;27.34;49.52
51926;BME280;37952;51.938;15.480;2023-08-21T12:16:49;100408.08;;;27.50;49.27
51926;BME280;37952;51.938;15.480;2023-08-21T12:19:52;100409.64;;;27.61;48.95
51926;BME280;37952;51.938;15.480;2023-08-21T12:22:55;100401.90;;;27.73;49.10
51926;BME280;37952;51.938;15.480;2023-08-21T12:25:59;100400.80;;;27.80;48.85
51926;BME280;37952;51.938;15.480;2023-08-21T12:29:02;100399.73;;;27.77;48.54
51926;BME280;37952;51.938;15.480;2023-08-21T12:32:05;100405.85;;;27.72;48.65
51926;BME280;37952;51.938;15.480;2023-08-21T12:35:08;100404.18;;;27.72;48.80
51926;BME280;37952;51.938;15.480;2023-08-21T12:38:14;100400.00;;;27.72;48.70
51926;BME280;37952;51.938;15.480;2023-08-21T12:41:17;100400.39;;;27.67;48.79
51926;BME280;37952;51.938;15.480;2023-08-21T12:44:20;100409.46;;;27.54;48.90
51926;BME280;37952;51.938;15.480;2023-08-21T12:47:23;100405.08;;;27.38;49.30
51926;BME280;37952;51.938;15.480;2023-08-21T12:50:26;100405.43;;;27.36;49.49
51926;BME280;37952;51.938;15.480;2023-08-21T12:53:29;100407.47;;;27.34;49.47
51926;BME280;37952;51.938;15.480;2023-08-21T12:56:31;100413.56;;;27.18;49.55
51926;BME280;37952;51.938;15.480;2023-08-21T12:59:34;100412.05;;;26.93;49.57
51926;BME280;37952;51.938;15.480;2023-08-21T13:02:37;100409.73;;;26.80;50.03
51926;BME280;37952;51.938;15.480;2023-08-21T13:05:41;100407.22;;;26.71;50.37
51926;BME280;37952;51.938;15.480;2023-08-21T13:08:43;100405.69;;;26.64;50.81
51926;BME280;37952;51.938;15.480;2023-08-21T13:11:46;100411.63;;;26.57;51.11
51926;BME280;37952;51.938;15.480;2023-08-21T13:14:49;100407.59;;;26.49;51.12
51926;BME280;37952;51.938;15.480;2023-08-21T13:17:52;100403.71;;;26.53;51.16
51926;BME280;37952;51.938;15.480;2023-08-21T13:20:55;100401.40;;;26.62;51.21
51926;BME280;37952;51.938;15.480;2023-08-21T13:23:57;100400.32;;;26.68;51.44
51926;BME280;37952;51.938;15.480;2023-08-21T13:27:04;100399.88;;;26.69;51.43
51926;BME280;37952;51.938;15.480;2023-08-21T13:30:08;100398.06;;;26.73;51.48
51926;BME280;37952;51.938;15.480;2023-08-21T13:33:14;100394.54;;;26.77;51.36
51926;BME280;37952;51.938;15.480;2023-08-21T13:36:17;100395.93;;;26.84;51.80
51926;BME280;37952;51.938;15.480;2023-08-21T13:39:21;100392.56;;;26.82;51.99
51926;BME280;37952;51.938;15.480;2023-08-21T13:42:24;100398.67;;;26.91;51.78
51926;BME280;37952;51.938;15.480;2023-08-21T13:45:27;100397.41;;;27.00;51.59
51926;BME280;37952;51.938;15.480;2023-08-21T13:48:31;100391.92;;;27.05;51.39
51926;BME280;37952;51.938;15.480;2023-08-21T13:51:34;100391.77;;;27.16;51.20
51926;BME280;37952;51.938;15.480;2023-08-21T13:54:36;100391.65;;;27.39;51.00
51926;BME280;37952;51.938;15.480;2023-08-21T13:57:39;100388.81;;;27.57;48.85
51926;BME280;37952;51.938;15.480;2023-08-21T14:00:43;100384.29;;;27.65;49.06
51926;BME280;37952;51.938;15.480;2023-08-21T14:03:47;100380.80;;;27.81;48.39
51926;BME280;37952;51.938;15.480;2023-08-21T14:06:50;100382.98;;;27.91;47.94
51926;BME280;37952;51.938;15.480;2023-08-21T14:09:53;100382.43;;;28.03;47.71
51926;BME280;37952;51.938;15.480;2023-08-21T14:12:56;100389.73;;;28.02;45.45
51926;BME280;37952;51.938;15.480;2023-08-21T14:15:59;100386.59;;;27.76;45.20
51926;BME280;37952;51.938;15.480;2023-08-21T14:19:02;100384.47;;;27.49;46.08
51926;BME280;37952;51.938;15.480;2023-08-21T14:22:05;100381.47;;;27.47;47.62
51926;BME280;37952;51.938;15.480;2023-08-21T14:25:08;100385.33;;;27.58;46.71
51926;BME280;37952;51.938;15.480;2023-08-21T14:28:11;100386.86;;;27.59;46.43
51926;BME280;37952;51.938;15.480;2023-08-21T14:31:14;100382.81;;;27.51;47.20
51926;BME280;37952;51.938;15.480;2023-08-21T14:34:17;100386.92;;;27.48;47.36
51926;BME280;37952;51.938;15.480;2023-08-21T14:37:20;100376.61;;;27.47;47.67
51926;BME280;37952;51.938;15.480;2023-08-21T14:40:23;100370.77;;;27.72;47.30
51926;BME280;37952;51.938;15.480;2023-08-21T14:43:28;100375.54;;;28.04;43.24
51926;BME280;37952;51.938;15.480;2023-08-21T14:46:34;100366.03;;;28.17;42.44
51926;BME280;37952;51.938;15.480;2023-08-21T14:49:41;100370.73;;;28.46;42.59
51926;BME280;37952;51.938;15.480;2023-08-21T14:52:44;100373.17;;;28.72;41.91
51926;BME280;37952;51.938;15.480;2023-08-21T14:55:47;100377.48;;;28.85;42.08
51926;BME280;37952;51.938;15.480;2023-08-21T14:58:50;100376.24;;;28.79;40.32
51926;BME280;37952;51.938;15.480;2023-08-21T15:01:52;100367.63;;;28.62;40.14
51926;BME280;37952;51.938;15.480;2023-08-21T15:04:58;100365.06;;;28.39;40.34
51926;BME280;37952;51.938;15.480;2023-08-21T15:08:00;100375.61;;;28.17;40.32
51926;BME280;37952;51.938;15.480;2023-08-21T15:11:04;100373.44;;;27.91;40.18
51926;BME280;37952;51.938;15.480;2023-08-21T15:14:11;100367.40;;;27.72;41.05
51926;BME280;37952;51.938;15.480;2023-08-21T15:17:17;100367.27;;;27.72;41.13
51926;BME280;37952;51.938;15.480;2023-08-21T15:20:21;100364.42;;;27.74;41.32
51926;BME280;37952;51.938;15.480;2023-08-21T15:23:24;100362.09;;;27.97;42.48
51926;BME280;37952;51.938;15.480;2023-08-21T15:26:27;100355.89;;;28.28;41.36
51926;BME280;37952;51.938;15.480;2023-08-21T15:29:30;100357.29;;;28.62;39.03
51926;BME280;37952;51.938;15.480;2023-08-21T15:32:33;100349.20;;;29.01;38.40
51926;BME280;37952;51.938;15.480;2023-08-21T15:35:36;100354.51;;;29.47;37.39
51926;BME280;37952;51.938;15.480;2023-08-21T15:38:39;100353.13;;;29.73;37.18
51926;BME280;37952;51.938;15.480;2023-08-21T15:41:42;100354.21;;;30.00;37.22
51926;BME280;37952;51.938;15.480;2023-08-21T15:44:45;100353.48;;;30.14;36.64
51926;BME280;37952;51.938;15.480;2023-08-21T15:47:47;100351.60;;;30.38;36.49
51926;BME280;37952;51.938;15.480;2023-08-21T15:50:53;100347.04;;;30.67;35.87
51926;BME280;37952;51.938;15.480;2023-08-21T15:53:56;100347.48;;;30.96;35.42